createdAt,value
2019-05-13T00:04:06.085Z,78.55
2019-05-13T00:09:06.783Z,78.81
2019-05-13T00:13:07.245Z,78.58
2019-05-13T00:18:07.022Z,79.31
2019-05-13T00:23:07.290Z,79.64
2019-05-13T00:28:07.476Z,80.37
2019-05-13T00:33:07.599Z,80.41
2019-05-13T00:37:15.185Z,78.92
2019-05-13T00:38:07.203Z,78.92
2019-05-13T00:43:07.006Z,77.66
2019-05-13T00:47:07.245Z,76.04
2019-05-13T00:52:07.484Z,77.65
2019-05-13T00:57:07.698Z,81.45
2019-05-13T01:02:08.692Z,80.6
2019-05-13T01:07:29.484Z,80.73
2019-05-13T01:12:08.314Z,82.13
2019-05-13T01:17:07.076Z,83.31
2019-05-13T01:21:06.866Z,84.79
2019-05-13T01:26:07.736Z,85.59
2019-05-13T01:31:07.714Z,86.84
2019-05-13T01:36:07.873Z,87.81
2019-05-13T01:41:07.577Z,89.19
2019-05-13T01:46:07.698Z,91.72
2019-05-13T01:50:06.428Z,90.98
2019-05-13T01:55:07.289Z,91.19
2019-05-13T02:00:09.599Z,91.72
2019-05-13T02:05:07.599Z,92.58
2019-05-13T02:10:07.305Z,93.02
2019-05-13T02:15:08.920Z,94.41
2019-05-13T02:20:07.911Z,96.15
2019-05-13T02:25:07.229Z,95.85
2019-05-13T02:29:06.704Z,96.05
2019-05-13T02:34:06.784Z,96.49
2019-05-13T02:39:06.557Z,97.06
2019-05-13T02:44:06.793Z,98.08
2019-05-13T02:49:06.292Z,98.6
2019-05-13T02:54:06.486Z,98.85
2019-05-13T02:59:06.661Z,100
2019-05-13T03:03:07.240Z,100
2019-05-13T03:04:07.251Z,100
2019-05-13T03:08:06.711Z,99.16
2019-05-13T03:13:06.351Z,99.8
2019-05-13T03:18:06.632Z,100
2019-05-13T03:23:06.881Z,100
2019-05-13T03:28:06.169Z,100
2019-05-13T03:33:28.506Z,100
2019-05-13T03:37:16.368Z,100
2019-05-13T03:42:07.234Z,100
2019-05-13T03:47:07.442Z,100
2019-05-13T03:52:07.082Z,100
2019-05-13T03:57:05.909Z,100
2019-05-13T04:02:07.579Z,100
2019-05-13T04:07:07.816Z,100
2019-05-13T04:12:07.426Z,99.9
2019-05-13T04:16:06.741Z,99.19
2019-05-13T04:21:06.538Z,96.21
2019-05-13T04:26:06.510Z,94.52
2019-05-13T04:31:06.405Z,93.3
2019-05-13T04:36:06.543Z,92.93
2019-05-13T04:41:06.122Z,92.19
2019-05-13T04:46:06.667Z,91.65
2019-05-13T04:50:07.119Z,91.35
2019-05-13T04:55:07.209Z,90.58
2019-05-13T05:00:08.425Z,90.04
2019-05-13T05:05:06.701Z,89.1
2019-05-13T05:10:23.163Z,88.49
2019-05-13T05:15:07.364Z,88.14
2019-05-13T05:20:06.442Z,86.82
2019-05-13T05:25:06.705Z,86.36
2019-05-13T05:30:07.229Z,83.17
2019-05-13T05:34:07.852Z,83.75
2019-05-13T05:39:07.454Z,84.03
2019-05-13T05:44:07.669Z,82.89
2019-05-13T05:49:07.643Z,82.67
2019-05-13T05:54:11.021Z,78.11
2019-05-13T05:58:07.374Z,79.42
2019-05-13T06:03:07.108Z,77.23
2019-05-13T06:08:07.310Z,74.99
2019-05-13T06:13:07.852Z,74.08
2019-05-13T06:18:06.845Z,74.14
2019-05-13T06:23:07.104Z,73.36
2019-05-13T06:28:07.330Z,74.84
2019-05-13T06:33:07.431Z,74.2
2019-05-13T06:38:07.635Z,71.92
2019-05-13T06:42:06.580Z,73.61
2019-05-13T06:47:06.542Z,75.4
2019-05-13T06:52:06.763Z,74.1
2019-05-13T06:57:06.860Z,75.13
2019-05-13T07:02:07.102Z,72.97
2019-05-13T07:06:06.759Z,72.82
2019-05-13T07:12:07.188Z,71.02
2019-05-13T07:16:06.674Z,70.42
2019-05-13T07:21:06.836Z,68.42
2019-05-13T07:26:06.075Z,68.54
2019-05-13T07:31:06.146Z,67.28
2019-05-13T07:36:06.268Z,67.81
2019-05-13T07:40:07.457Z,67.22
2019-05-13T07:45:09.157Z,69.54
2019-05-13T07:50:07.663Z,64.29
2019-05-13T07:55:07.843Z,65.32
2019-05-13T08:00:07.863Z,64.95
2019-05-13T08:05:06.666Z,63.07
2019-05-13T08:10:06.292Z,63.52
2019-05-13T08:15:07.824Z,63.84
2019-05-13T08:19:07.642Z,62.82
2019-05-13T08:24:06.901Z,61.82
2019-05-13T08:29:07.278Z,62.17
2019-05-13T08:34:07.845Z,63.42
2019-05-13T08:39:07.586Z,56.37
2019-05-13T08:43:08.007Z,58.71
2019-05-13T08:44:06.966Z,58.71
2019-05-13T08:48:07.000Z,50.21
2019-05-13T08:53:07.246Z,51.76
2019-05-13T08:58:07.401Z,45.81
2019-05-13T09:03:07.452Z,45.84
2019-05-13T09:08:07.666Z,45.02
2019-05-13T09:13:07.433Z,48.49
2019-05-13T09:17:07.844Z,50.56
2019-05-13T09:18:07.795Z,50.56
2019-05-13T09:22:07.318Z,50.29
2019-05-13T09:27:06.811Z,48.8
2019-05-13T09:32:07.374Z,48.51
2019-05-13T09:37:07.439Z,50.62
2019-05-13T09:42:07.075Z,46.35
2019-05-13T09:46:08.145Z,43.27
2019-05-13T09:47:07.120Z,43.27
2019-05-13T09:51:07.449Z,43.99
2019-05-13T09:56:07.595Z,46.42
2019-05-13T10:01:07.237Z,42.72
2019-05-13T10:06:07.339Z,39.54
2019-05-13T10:11:06.879Z,41.51
2019-05-13T10:16:07.110Z,40.86
2019-05-13T10:20:08.204Z,45.47
2019-05-13T10:21:07.146Z,45.47
2019-05-13T10:25:07.523Z,41.34
2019-05-13T10:30:07.920Z,43.56
2019-05-13T10:35:07.267Z,45.28
2019-05-13T10:40:08.480Z,40.92
2019-05-13T10:45:09.061Z,38.07
2019-05-13T10:49:06.651Z,40.56
2019-05-13T10:54:06.755Z,44.75
2019-05-13T10:59:06.232Z,39.95
2019-05-13T11:04:13.291Z,42.34
2019-05-13T11:09:07.936Z,42.82
2019-05-13T11:14:16.311Z,39.29
2019-05-13T11:19:07.354Z,38.64
2019-05-13T11:24:07.553Z,39.34
2019-05-13T11:28:07.928Z,39.29
2019-05-13T11:33:11.166Z,38.53
2019-05-13T11:38:07.319Z,40.19
2019-05-13T11:43:07.856Z,35.35
2019-05-13T11:48:08.010Z,36.93
2019-05-13T11:53:38.455Z,38.87
2019-05-13T11:58:07.743Z,40.25
2019-05-13T12:02:07.712Z,40.99
2019-05-13T12:07:06.974Z,39.18
2019-05-13T12:12:07.746Z,35.98
2019-05-13T12:17:07.780Z,34.78
2019-05-13T12:22:07.023Z,34.55
2019-05-13T12:27:07.291Z,37.23
2019-05-13T12:31:06.963Z,38.42
2019-05-13T12:36:05.922Z,36.37
2019-05-13T12:41:06.946Z,40.09
2019-05-13T12:46:06.806Z,41.29
2019-05-13T12:51:07.546Z,42.92
2019-05-13T12:55:07.125Z,40.7
2019-05-13T12:56:07.173Z,40.7
2019-05-13T13:00:09.082Z,39.06
2019-05-13T13:05:18.787Z,42.19
2019-05-13T13:10:06.579Z,42.39
2019-05-13T13:15:41.783Z,42.15
2019-05-13T13:20:09.571Z,39.12
2019-05-13T13:25:06.791Z,41.18
2019-05-13T13:30:08.636Z,36.2
2019-05-13T13:35:07.021Z,40.51
2019-05-13T13:39:06.632Z,41.32
2019-05-13T13:44:08.548Z,42.15
2019-05-13T13:49:07.563Z,41.89
2019-05-13T13:54:06.846Z,41.98
2019-05-13T13:59:07.087Z,42.28
2019-05-13T14:03:08.335Z,39.6
2019-05-13T14:04:06.348Z,39.6
2019-05-13T14:08:07.840Z,39.14
2019-05-13T14:13:07.548Z,39.55
2019-05-13T14:18:07.841Z,37.25
2019-05-13T14:23:07.149Z,38.84
2019-05-13T14:28:07.871Z,39.8
2019-05-13T14:33:07.345Z,36.83
2019-05-13T14:37:06.972Z,35.05
2019-05-13T14:38:06.879Z,35.05
2019-05-13T14:42:07.674Z,37.68
2019-05-13T14:47:07.640Z,39.28
2019-05-13T14:52:08.549Z,40.96
2019-05-13T14:57:06.339Z,40.44
2019-05-13T15:02:07.688Z,39.89
2019-05-13T15:07:07.832Z,37.96
2019-05-13T15:12:08.628Z,36.02
2019-05-13T15:16:07.162Z,35.61
2019-05-13T15:21:06.426Z,35.39
2019-05-13T15:26:07.132Z,38.2
2019-05-13T15:31:06.820Z,39.09
2019-05-13T15:36:06.835Z,39.62
2019-05-13T15:41:06.245Z,35.87
2019-05-13T15:45:08.107Z,34.52
2019-05-13T15:46:06.942Z,34.52
2019-05-13T15:50:06.057Z,31.78
2019-05-13T15:55:06.508Z,33.2
2019-05-13T16:00:08.736Z,33.47
2019-05-13T16:05:06.769Z,33.49
2019-05-13T16:10:06.925Z,32.46
2019-05-13T16:15:08.074Z,32.77
2019-05-13T16:19:06.913Z,31.66
2019-05-13T16:20:07.236Z,31.66
2019-05-13T16:24:06.466Z,33.25
2019-05-13T16:29:06.970Z,37.23
2019-05-13T16:34:06.089Z,38.67
2019-05-13T16:39:06.661Z,38.68
2019-05-13T16:44:05.925Z,39.96
2019-05-13T16:49:06.498Z,39.4
2019-05-13T16:53:06.613Z,41.46
2019-05-13T16:58:06.765Z,40.99
2019-05-13T17:03:07.372Z,41.99
2019-05-13T17:08:07.561Z,41.49
2019-05-13T17:13:07.063Z,36.26
2019-05-13T17:18:15.940Z,37.89
2019-05-13T17:22:06.516Z,37.93
2019-05-13T17:23:07.555Z,37.93
2019-05-13T17:27:05.893Z,38.67
2019-05-13T17:32:06.083Z,38.06
2019-05-13T17:37:06.252Z,39.53
2019-05-13T17:42:06.810Z,40.7
2019-05-13T17:47:06.792Z,41.86
2019-05-13T17:52:06.871Z,41.02
2019-05-13T17:56:06.374Z,40.71
2019-05-13T18:01:07.755Z,43.08
2019-05-13T18:06:07.101Z,45.05
2019-05-13T18:11:07.528Z,44.22
2019-05-13T18:16:06.932Z,43.72
2019-05-13T18:21:07.222Z,45.87
2019-05-13T18:26:07.394Z,45.6
2019-05-13T18:30:08.144Z,46.27
2019-05-13T18:35:06.761Z,47.39
2019-05-13T18:40:06.621Z,48.16
2019-05-13T18:45:07.983Z,48.45
2019-05-13T18:50:06.890Z,48.2
2019-05-13T18:55:07.112Z,49.64
2019-05-13T19:00:11.448Z,50.89
2019-05-13T19:04:07.265Z,51.68
2019-05-13T19:09:06.906Z,52.5
2019-05-13T19:14:06.326Z,54.44
2019-05-13T19:19:22.856Z,54.06
2019-05-13T19:24:06.146Z,54.04
2019-05-13T19:29:06.772Z,54.46
2019-05-13T19:34:07.273Z,53.54
2019-05-13T19:38:06.719Z,53.36
2019-05-13T19:43:06.052Z,49.45
2019-05-13T19:48:06.035Z,46.75
2019-05-13T19:53:06.215Z,47.59
2019-05-13T19:58:06.402Z,48.45
2019-05-13T20:03:07.107Z,49.27
2019-05-13T20:08:07.291Z,51.41
2019-05-13T20:12:06.247Z,52.83
2019-05-13T20:13:07.321Z,52.83
2019-05-13T20:17:06.824Z,54.51
2019-05-13T20:22:06.208Z,55.88
2019-05-13T20:27:06.587Z,62.03
2019-05-13T20:32:06.847Z,62.52
2019-05-13T20:37:05.899Z,63.84
2019-05-13T20:41:07.899Z,62.85
2019-05-13T20:52:08.375Z,59.43
2019-05-13T20:57:07.171Z,58.29
2019-05-13T21:02:06.221Z,58.96
2019-05-13T21:07:06.398Z,59.01
2019-05-13T21:11:07.271Z,59.75
2019-05-13T21:12:06.986Z,59.75
2019-05-13T21:16:06.984Z,61.09
2019-05-13T21:21:06.316Z,58.62
2019-05-13T21:26:06.544Z,57.88
2019-05-13T21:31:06.471Z,58.58
2019-05-13T21:36:06.826Z,57.85
2019-05-13T21:41:06.473Z,57.81
2019-05-13T21:45:08.337Z,57.42
2019-05-13T21:50:06.540Z,59.71
2019-05-13T21:55:06.798Z,57.43
2019-05-13T22:00:08.397Z,56.94
2019-05-13T22:05:06.626Z,59.65
2019-05-13T22:10:06.519Z,62.46
2019-05-13T22:15:08.308Z,59.79
2019-05-13T22:20:06.456Z,57.24
2019-05-13T22:25:06.550Z,56.96
2019-05-13T22:29:07.556Z,57.16
2019-05-13T22:34:07.794Z,61.97
2019-05-13T22:39:07.561Z,59.72
2019-05-13T22:44:07.849Z,60.91
2019-05-13T22:49:07.048Z,59.29
2019-05-13T22:54:07.217Z,58.99
2019-05-13T22:59:07.282Z,60.54
2019-05-13T23:03:07.818Z,60.2
2019-05-13T23:08:07.848Z,65.23
2019-05-13T23:13:07.495Z,63.64
2019-05-13T23:18:07.587Z,62.84
2019-05-13T23:23:07.819Z,64.3
2019-05-13T23:28:07.113Z,63.67
2019-05-13T23:33:07.548Z,62.87
2019-05-13T23:37:05.950Z,62.65
2019-05-13T23:42:06.623Z,62.87
2019-05-13T23:47:06.748Z,65.4
2019-05-13T23:52:06.109Z,66.87
2019-05-13T23:57:06.260Z,66.52
